sensor_id;sensor_type;location;lat;lon;timestamp;P1;durP1;ratioP1;P2;durP2;ratioP2
4049;SDS011;2039;50.894;6.888;2022-07-06T00:01:15;67.87;;;6.90;;
4049;SDS011;2039;50.894;6.888;2022-07-06T00:03:41;67.80;;;7.20;;
4049;SDS011;2039;50.894;6.888;2022-07-06T00:06:07;67.70;;;6.93;;
4049;SDS011;2039;50.894;6.888;2022-07-06T00:08:33;70.20;;;7.27;;
4049;SDS011;2039;50.894;6.888;2022-07-06T00:10:59;68.80;;;7.40;;
4049;SDS011;2039;50.894;6.888;2022-07-06T00:13:26;68.83;;;8.60;;
4049;SDS011;2039;50.894;6.888;2022-07-06T00:15:52;74.23;;;8.97;;
4049;SDS011;2039;50.894;6.888;2022-07-06T00:18:18;68.17;;;8.20;;
4049;SDS011;2039;50.894;6.888;2022-07-06T00:20:44;68.67;;;8.10;;
4049;SDS011;2039;50.894;6.888;2022-07-06T00:23:10;68.57;;;7.57;;
4049;SDS011;2039;50.894;6.888;2022-07-06T00:25:36;68.97;;;8.20;;
4049;SDS011;2039;50.894;6.888;2022-07-06T00:28:02;69.53;;;9.17;;
4049;SDS011;2039;50.894;6.888;2022-07-06T00:30:28;69.87;;;9.33;;
4049;SDS011;2039;50.894;6.888;2022-07-06T00:32:53;68.57;;;8.23;;
4049;SDS011;2039;50.894;6.888;2022-07-06T00:35:19;69.40;;;7.40;;
4049;SDS011;2039;50.894;6.888;2022-07-06T00:37:45;67.90;;;7.80;;
4049;SDS011;2039;50.894;6.888;2022-07-06T00:40:11;68.67;;;8.40;;
4049;SDS011;2039;50.894;6.888;2022-07-06T00:42:41;69.27;;;9.00;;
4049;SDS011;2039;50.894;6.888;2022-07-06T00:45:09;72.30;;;8.63;;
4049;SDS011;2039;50.894;6.888;2022-07-06T00:47:36;69.17;;;8.50;;
4049;SDS011;2039;50.894;6.888;2022-07-06T00:50:05;69.40;;;8.70;;
4049;SDS011;2039;50.894;6.888;2022-07-06T00:52:39;69.10;;;9.73;;
4049;SDS011;2039;50.894;6.888;2022-07-06T00:55:06;68.70;;;9.77;;
4049;SDS011;2039;50.894;6.888;2022-07-06T00:57:32;69.30;;;8.40;;
4049;SDS011;2039;50.894;6.888;2022-07-06T00:59:58;69.03;;;7.90;;
4049;SDS011;2039;50.894;6.888;2022-07-06T01:02:24;69.43;;;7.97;;
4049;SDS011;2039;50.894;6.888;2022-07-06T01:04:50;69.00;;;8.30;;
4049;SDS011;2039;50.894;6.888;2022-07-06T01:07:15;69.00;;;8.80;;
4049;SDS011;2039;50.894;6.888;2022-07-06T01:09:41;69.73;;;8.80;;
4049;SDS011;2039;50.894;6.888;2022-07-06T01:12:08;69.10;;;9.40;;
4049;SDS011;2039;50.894;6.888;2022-07-06T01:14:35;69.80;;;8.00;;
4049;SDS011;2039;50.894;6.888;2022-07-06T01:17:01;67.57;;;7.87;;
4049;SDS011;2039;50.894;6.888;2022-07-06T01:19:27;68.70;;;9.10;;
4049;SDS011;2039;50.894;6.888;2022-07-06T01:21:53;70.60;;;7.57;;
4049;SDS011;2039;50.894;6.888;2022-07-06T01:24:19;73.20;;;8.30;;
4049;SDS011;2039;50.894;6.888;2022-07-06T01:26:45;70.57;;;8.03;;
4049;SDS011;2039;50.894;6.888;2022-07-06T01:29:11;71.30;;;7.77;;
4049;SDS011;2039;50.894;6.888;2022-07-06T01:31:41;69.50;;;8.30;;
4049;SDS011;2039;50.894;6.888;2022-07-06T01:34:15;72.57;;;7.27;;
4049;SDS011;2039;50.894;6.888;2022-07-06T01:36:42;68.57;;;7.80;;
4049;SDS011;2039;50.894;6.888;2022-07-06T01:39:09;70.27;;;6.80;;
4049;SDS011;2039;50.894;6.888;2022-07-06T01:41:35;69.00;;;6.67;;
4049;SDS011;2039;50.894;6.888;2022-07-06T01:44:04;68.40;;;6.40;;
4049;SDS011;2039;50.894;6.888;2022-07-06T01:46:31;68.60;;;6.50;;
4049;SDS011;2039;50.894;6.888;2022-07-06T01:48:57;67.57;;;6.23;;
4049;SDS011;2039;50.894;6.888;2022-07-06T01:51:23;67.37;;;6.03;;
4049;SDS011;2039;50.894;6.888;2022-07-06T01:53:49;70.30;;;5.93;;
4049;SDS011;2039;50.894;6.888;2022-07-06T01:56:16;67.47;;;5.20;;
4049;SDS011;2039;50.894;6.888;2022-07-06T01:58:44;68.33;;;5.63;;
4049;SDS011;2039;50.894;6.888;2022-07-06T02:01:12;73.10;;;5.70;;
4049;SDS011;2039;50.894;6.888;2022-07-06T02:03:39;66.43;;;4.47;;
4049;SDS011;2039;50.894;6.888;2022-07-06T02:06:05;68.07;;;5.33;;
4049;SDS011;2039;50.894;6.888;2022-07-06T02:08:32;67.27;;;4.87;;
4049;SDS011;2039;50.894;6.888;2022-07-06T02:11:02;68.53;;;4.97;;
4049;SDS011;2039;50.894;6.888;2022-07-06T02:13:29;66.37;;;4.13;;
4049;SDS011;2039;50.894;6.888;2022-07-06T02:15:54;67.00;;;4.30;;
4049;SDS011;2039;50.894;6.888;2022-07-06T02:18:20;67.20;;;4.30;;
4049;SDS011;2039;50.894;6.888;2022-07-06T02:20:46;67.27;;;3.97;;
4049;SDS011;2039;50.894;6.888;2022-07-06T02:23:11;69.53;;;4.10;;
4049;SDS011;2039;50.894;6.888;2022-07-06T02:25:37;66.73;;;3.87;;
4049;SDS011;2039;50.894;6.888;2022-07-06T02:28:03;70.87;;;4.10;;
4049;SDS011;2039;50.894;6.888;2022-07-06T02:30:29;70.20;;;4.23;;
4049;SDS011;2039;50.894;6.888;2022-07-06T02:32:55;70.57;;;4.70;;
4049;SDS011;2039;50.894;6.888;2022-07-06T02:35:20;71.93;;;5.07;;
4049;SDS011;2039;50.894;6.888;2022-07-06T02:37:46;68.03;;;3.40;;
4049;SDS011;2039;50.894;6.888;2022-07-06T02:40:12;67.30;;;3.77;;
4049;SDS011;2039;50.894;6.888;2022-07-06T02:42:38;68.53;;;4.63;;
4049;SDS011;2039;50.894;6.888;2022-07-06T02:45:04;67.23;;;4.40;;
4049;SDS011;2039;50.894;6.888;2022-07-06T02:47:30;66.37;;;3.70;;
4049;SDS011;2039;50.894;6.888;2022-07-06T02:49:56;68.87;;;3.73;;
4049;SDS011;2039;50.894;6.888;2022-07-06T02:52:22;67.80;;;4.17;;
4049;SDS011;2039;50.894;6.888;2022-07-06T02:54:48;67.90;;;3.70;;
4049;SDS011;2039;50.894;6.888;2022-07-06T02:57:14;68.47;;;3.83;;
4049;SDS011;2039;50.894;6.888;2022-07-06T02:59:43;68.80;;;4.30;;
4049;SDS011;2039;50.894;6.888;2022-07-06T03:02:09;68.47;;;4.17;;
4049;SDS011;2039;50.894;6.888;2022-07-06T03:04:35;67.20;;;4.20;;
4049;SDS011;2039;50.894;6.888;2022-07-06T03:07:01;71.30;;;4.70;;
4049;SDS011;2039;50.894;6.888;2022-07-06T03:09:26;72.20;;;4.80;;
4049;SDS011;2039;50.894;6.888;2022-07-06T03:11:52;68.60;;;3.73;;
4049;SDS011;2039;50.894;6.888;2022-07-06T03:14:18;66.90;;;3.90;;
4049;SDS011;2039;50.894;6.888;2022-07-06T03:16:45;70.40;;;4.83;;
4049;SDS011;2039;50.894;6.888;2022-07-06T03:19:10;69.00;;;4.50;;
4049;SDS011;2039;50.894;6.888;2022-07-06T03:21:36;67.17;;;4.43;;
4049;SDS011;2039;50.894;6.888;2022-07-06T03:24:02;67.17;;;4.30;;
4049;SDS011;2039;50.894;6.888;2022-07-06T03:26:28;71.07;;;4.57;;
4049;SDS011;2039;50.894;6.888;2022-07-06T03:28:54;67.90;;;4.20;;
4049;SDS011;2039;50.894;6.888;2022-07-06T03:31:20;69.63;;;4.80;;
4049;SDS011;2039;50.894;6.888;2022-07-06T03:33:46;67.77;;;3.87;;
4049;SDS011;2039;50.894;6.888;2022-07-06T03:36:11;67.43;;;4.30;;
4049;SDS011;2039;50.894;6.888;2022-07-06T03:38:38;67.10;;;4.93;;
4049;SDS011;2039;50.894;6.888;2022-07-06T03:41:03;67.10;;;4.27;;
4049;SDS011;2039;50.894;6.888;2022-07-06T03:43:29;67.60;;;4.73;;
4049;SDS011;2039;50.894;6.888;2022-07-06T03:45:55;70.07;;;6.33;;
4049;SDS011;2039;50.894;6.888;2022-07-06T03:48:21;69.07;;;5.87;;
4049;SDS011;2039;50.894;6.888;2022-07-06T03:50:46;66.57;;;5.33;;
4049;SDS011;2039;50.894;6.888;2022-07-06T03:53:12;71.73;;;6.90;;
4049;SDS011;2039;50.894;6.888;2022-07-06T03:55:38;67.10;;;6.27;;
4049;SDS011;2039;50.894;6.888;2022-07-06T03:58:04;70.63;;;6.77;;
4049;SDS011;2039;50.894;6.888;2022-07-06T04:00:29;70.70;;;7.00;;
4049;SDS011;2039;50.894;6.888;2022-07-06T04:02:55;69.27;;;8.10;;
4049;SDS011;2039;50.894;6.888;2022-07-06T04:05:21;68.07;;;7.40;;
4049;SDS011;2039;50.894;6.888;2022-07-06T04:07:48;71.97;;;8.47;;
4049;SDS011;2039;50.894;6.888;2022-07-06T04:10:14;72.33;;;9.47;;
4049;SDS011;2039;50.894;6.888;2022-07-06T04:12:44;70.33;;;6.20;;
4049;SDS011;2039;50.894;6.888;2022-07-06T04:15:10;69.53;;;10.70;;
4049;SDS011;2039;50.894;6.888;2022-07-06T04:17:37;70.60;;;12.23;;
4049;SDS011;2039;50.894;6.888;2022-07-06T04:20:22;70.00;;;11.00;;
4049;SDS011;2039;50.894;6.888;2022-07-06T04:22:48;75.90;;;12.07;;
4049;SDS011;2039;50.894;6.888;2022-07-06T04:25:15;71.10;;;14.77;;
4049;SDS011;2039;50.894;6.888;2022-07-06T04:27:41;71.20;;;13.90;;
4049;SDS011;2039;50.894;6.888;2022-07-06T04:30:07;75.57;;;14.60;;
4049;SDS011;2039;50.894;6.888;2022-07-06T04:32:34;70.10;;;15.50;;
4049;SDS011;2039;50.894;6.888;2022-07-06T04:35:00;70.83;;;15.20;;
4049;SDS011;2039;50.894;6.888;2022-07-06T04:37:27;70.07;;;14.17;;
4049;SDS011;2039;50.894;6.888;2022-07-06T04:39:52;74.00;;;15.80;;
4049;SDS011;2039;50.894;6.888;2022-07-06T04:42:18;72.50;;;13.30;;
4049;SDS011;2039;50.894;6.888;2022-07-06T04:44:44;70.03;;;13.23;;
4049;SDS011;2039;50.894;6.888;2022-07-06T04:47:11;70.27;;;12.20;;
4049;SDS011;2039;50.894;6.888;2022-07-06T04:49:37;74.93;;;17.67;;
4049;SDS011;2039;50.894;6.888;2022-07-06T04:52:03;74.13;;;13.57;;
4049;SDS011;2039;50.894;6.888;2022-07-06T04:54:32;70.87;;;13.80;;
4049;SDS011;2039;50.894;6.888;2022-07-06T04:56:58;74.17;;;16.07;;
4049;SDS011;2039;50.894;6.888;2022-07-06T04:59:27;71.50;;;11.47;;
4049;SDS011;2039;50.894;6.888;2022-07-06T05:01:52;69.50;;;7.40;;
4049;SDS011;2039;50.894;6.888;2022-07-06T05:04:18;69.80;;;4.90;;
4049;SDS011;2039;50.894;6.888;2022-07-06T05:06:44;69.03;;;4.43;;
4049;SDS011;2039;50.894;6.888;2022-07-06T05:09:11;68.77;;;4.63;;
4049;SDS011;2039;50.894;6.888;2022-07-06T05:11:37;66.70;;;4.03;;
4049;SDS011;2039;50.894;6.888;2022-07-06T05:14:03;69.10;;;4.40;;
4049;SDS011;2039;50.894;6.888;2022-07-06T05:16:29;72.13;;;4.47;;
4049;SDS011;2039;50.894;6.888;2022-07-06T05:18:55;70.97;;;6.00;;
4049;SDS011;2039;50.894;6.888;2022-07-06T05:21:20;68.47;;;5.93;;
4049;SDS011;2039;50.894;6.888;2022-07-06T05:23:46;71.23;;;7.27;;
4049;SDS011;2039;50.894;6.888;2022-07-06T05:26:12;77.93;;;8.53;;
4049;SDS011;2039;50.894;6.888;2022-07-06T05:28:38;69.93;;;9.60;;
4049;SDS011;2039;50.894;6.888;2022-07-06T05:31:03;76.87;;;13.50;;
4049;SDS011;2039;50.894;6.888;2022-07-06T05:33:29;70.90;;;10.23;;
4049;SDS011;2039;50.894;6.888;2022-07-06T05:35:55;73.93;;;10.07;;
4049;SDS011;2039;50.894;6.888;2022-07-06T05:38:21;70.10;;;10.30;;
4049;SDS011;2039;50.894;6.888;2022-07-06T05:40:47;71.73;;;11.17;;
4049;SDS011;2039;50.894;6.888;2022-07-06T05:43:12;71.40;;;10.40;;
4049;SDS011;2039;50.894;6.888;2022-07-06T05:45:38;71.90;;;11.57;;
4049;SDS011;2039;50.894;6.888;2022-07-06T05:48:04;70.87;;;11.70;;
4049;SDS011;2039;50.894;6.888;2022-07-06T05:50:49;72.37;;;11.90;;
4049;SDS011;2039;50.894;6.888;2022-07-06T05:53:14;71.27;;;12.70;;
4049;SDS011;2039;50.894;6.888;2022-07-06T05:55:40;71.93;;;14.00;;
4049;SDS011;2039;50.894;6.888;2022-07-06T05:58:06;73.73;;;15.87;;
4049;SDS011;2039;50.894;6.888;2022-07-06T06:00:32;71.97;;;16.00;;
4049;SDS011;2039;50.894;6.888;2022-07-06T06:02:58;72.40;;;17.67;;
4049;SDS011;2039;50.894;6.888;2022-07-06T06:05:24;71.50;;;11.20;;
4049;SDS011;2039;50.894;6.888;2022-07-06T06:07:49;74.83;;;12.00;;
4049;SDS011;2039;50.894;6.888;2022-07-06T06:10:17;73.00;;;16.03;;
4049;SDS011;2039;50.894;6.888;2022-07-06T06:12:44;72.27;;;12.50;;
4049;SDS011;2039;50.894;6.888;2022-07-06T06:15:11;69.77;;;12.97;;
4049;SDS011;2039;50.894;6.888;2022-07-06T06:17:37;70.83;;;10.70;;
4049;SDS011;2039;50.894;6.888;2022-07-06T06:20:07;75.03;;;13.90;;
4049;SDS011;2039;50.894;6.888;2022-07-06T06:22:45;71.73;;;12.20;;
4049;SDS011;2039;50.894;6.888;2022-07-06T06:25:18;76.70;;;15.80;;
4049;SDS011;2039;50.894;6.888;2022-07-06T06:27:46;71.30;;;15.30;;
4049;SDS011;2039;50.894;6.888;2022-07-06T06:30:12;72.63;;;15.37;;
4049;SDS011;2039;50.894;6.888;2022-07-06T06:32:39;73.80;;;13.07;;
4049;SDS011;2039;50.894;6.888;2022-07-06T06:35:05;71.70;;;15.17;;
4049;SDS011;2039;50.894;6.888;2022-07-06T06:37:31;70.10;;;15.67;;
4049;SDS011;2039;50.894;6.888;2022-07-06T06:39:59;75.40;;;15.80;;
4049;SDS011;2039;50.894;6.888;2022-07-06T06:42:25;72.47;;;12.47;;
4049;SDS011;2039;50.894;6.888;2022-07-06T06:44:50;71.60;;;11.63;;
4049;SDS011;2039;50.894;6.888;2022-07-06T06:47:16;70.23;;;13.10;;
4049;SDS011;2039;50.894;6.888;2022-07-06T06:49:44;69.60;;;10.00;;
4049;SDS011;2039;50.894;6.888;2022-07-06T06:52:09;70.07;;;10.43;;
4049;SDS011;2039;50.894;6.888;2022-07-06T06:54:35;69.00;;;9.50;;
4049;SDS011;2039;50.894;6.888;2022-07-06T06:57:01;69.83;;;7.43;;
4049;SDS011;2039;50.894;6.888;2022-07-06T06:59:26;70.80;;;8.67;;
4049;SDS011;2039;50.894;6.888;2022-07-06T07:01:52;66.80;;;7.47;;
4049;SDS011;2039;50.894;6.888;2022-07-06T07:04:18;68.37;;;6.03;;
4049;SDS011;2039;50.894;6.888;2022-07-06T07:06:43;68.43;;;9.37;;
4049;SDS011;2039;50.894;6.888;2022-07-06T07:09:09;69.97;;;8.40;;
4049;SDS011;2039;50.894;6.888;2022-07-06T07:11:35;67.90;;;3.40;;
4049;SDS011;2039;50.894;6.888;2022-07-06T07:14:00;68.97;;;4.37;;
4049;SDS011;2039;50.894;6.888;2022-07-06T07:16:27;68.17;;;3.83;;
4049;SDS011;2039;50.894;6.888;2022-07-06T07:18:52;66.17;;;3.87;;
4049;SDS011;2039;50.894;6.888;2022-07-06T07:21:18;67.50;;;3.53;;
4049;SDS011;2039;50.894;6.888;2022-07-06T07:23:44;68.80;;;3.60;;
4049;SDS011;2039;50.894;6.888;2022-07-06T07:26:10;66.90;;;3.50;;
4049;SDS011;2039;50.894;6.888;2022-07-06T07:28:36;68.47;;;3.10;;
4049;SDS011;2039;50.894;6.888;2022-07-06T07:31:02;70.23;;;3.30;;
4049;SDS011;2039;50.894;6.888;2022-07-06T07:33:28;69.60;;;3.80;;
4049;SDS011;2039;50.894;6.888;2022-07-06T07:35:54;67.17;;;3.70;;
4049;SDS011;2039;50.894;6.888;2022-07-06T07:38:20;66.43;;;3.03;;
4049;SDS011;2039;50.894;6.888;2022-07-06T07:40:45;69.17;;;3.70;;
4049;SDS011;2039;50.894;6.888;2022-07-06T07:43:11;65.97;;;4.10;;
4049;SDS011;2039;50.894;6.888;2022-07-06T07:45:37;67.90;;;3.83;;
4049;SDS011;2039;50.894;6.888;2022-07-06T07:48:03;68.87;;;4.17;;
4049;SDS011;2039;50.894;6.888;2022-07-06T07:50:29;67.33;;;3.30;;
4049;SDS011;2039;50.894;6.888;2022-07-06T07:52:55;68.13;;;2.97;;
4049;SDS011;2039;50.894;6.888;2022-07-06T07:55:20;71.60;;;3.50;;
4049;SDS011;2039;50.894;6.888;2022-07-06T07:57:46;67.90;;;3.00;;
4049;SDS011;2039;50.894;6.888;2022-07-06T08:00:12;78.67;;;3.60;;
4049;SDS011;2039;50.894;6.888;2022-07-06T08:02:38;72.43;;;3.10;;
4049;SDS011;2039;50.894;6.888;2022-07-06T08:05:04;66.20;;;3.10;;
4049;SDS011;2039;50.894;6.888;2022-07-06T08:07:30;65.70;;;3.30;;
4049;SDS011;2039;50.894;6.888;2022-07-06T08:09:56;68.63;;;3.80;;
4049;SDS011;2039;50.894;6.888;2022-07-06T08:12:22;67.20;;;3.17;;
4049;SDS011;2039;50.894;6.888;2022-07-06T08:14:48;69.60;;;2.80;;
4049;SDS011;2039;50.894;6.888;2022-07-06T08:17:13;66.43;;;3.20;;
4049;SDS011;2039;50.894;6.888;2022-07-06T08:19:39;65.40;;;2.40;;
4049;SDS011;2039;50.894;6.888;2022-07-06T08:22:05;67.00;;;3.10;;
4049;SDS011;2039;50.894;6.888;2022-07-06T08:24:33;67.50;;;3.17;;
4049;SDS011;2039;50.894;6.888;2022-07-06T08:26:59;66.83;;;2.90;;
4049;SDS011;2039;50.894;6.888;2022-07-06T08:29:25;65.87;;;3.03;;
4049;SDS011;2039;50.894;6.888;2022-07-06T08:31:57;66.50;;;3.30;;
4049;SDS011;2039;50.894;6.888;2022-07-06T08:34:23;70.00;;;2.93;;
4049;SDS011;2039;50.894;6.888;2022-07-06T08:36:52;67.07;;;2.60;;
4049;SDS011;2039;50.894;6.888;2022-07-06T08:39:18;65.10;;;2.67;;
4049;SDS011;2039;50.894;6.888;2022-07-06T08:41:47;66.80;;;2.37;;
4049;SDS011;2039;50.894;6.888;2022-07-06T08:44:20;66.87;;;2.50;;
4049;SDS011;2039;50.894;6.888;2022-07-06T08:46:46;65.50;;;2.70;;
4049;SDS011;2039;50.894;6.888;2022-07-06T08:49:15;65.90;;;2.73;;
4049;SDS011;2039;50.894;6.888;2022-07-06T08:51:47;66.20;;;3.10;;
4049;SDS011;2039;50.894;6.888;2022-07-06T08:54:18;67.40;;;2.77;;
4049;SDS011;2039;50.894;6.888;2022-07-06T08:56:47;66.20;;;3.20;;
4049;SDS011;2039;50.894;6.888;2022-07-06T08:59:14;66.60;;;2.50;;
4049;SDS011;2039;50.894;6.888;2022-07-06T09:01:44;68.00;;;2.60;;
4049;SDS011;2039;50.894;6.888;2022-07-06T09:04:15;65.53;;;2.30;;
4049;SDS011;2039;50.894;6.888;2022-07-06T09:06:42;66.10;;;2.77;;
4049;SDS011;2039;50.894;6.888;2022-07-06T09:09:11;65.37;;;2.60;;
4049;SDS011;2039;50.894;6.888;2022-07-06T09:11:45;67.33;;;2.60;;
4049;SDS011;2039;50.894;6.888;2022-07-06T09:14:14;65.97;;;2.97;;
4049;SDS011;2039;50.894;6.888;2022-07-06T09:16:40;67.00;;;2.57;;
4049;SDS011;2039;50.894;6.888;2022-07-06T09:19:07;73.30;;;2.80;;
4049;SDS011;2039;50.894;6.888;2022-07-06T09:21:36;65.77;;;2.30;;
4049;SDS011;2039;50.894;6.888;2022-07-06T09:24:05;65.67;;;2.97;;
4049;SDS011;2039;50.894;6.888;2022-07-06T09:26:37;65.03;;;2.23;;
4049;SDS011;2039;50.894;6.888;2022-07-06T09:29:04;66.33;;;2.60;;
4049;SDS011;2039;50.894;6.888;2022-07-06T09:31:30;65.20;;;2.60;;
4049;SDS011;2039;50.894;6.888;2022-07-06T09:34:03;67.90;;;2.87;;
4049;SDS011;2039;50.894;6.888;2022-07-06T09:36:42;67.67;;;2.73;;
4049;SDS011;2039;50.894;6.888;2022-07-06T09:39:20;65.40;;;2.30;;
4049;SDS011;2039;50.894;6.888;2022-07-06T09:41:51;66.40;;;2.97;;
4049;SDS011;2039;50.894;6.888;2022-07-06T09:44:20;66.20;;;2.57;;
4049;SDS011;2039;50.894;6.888;2022-07-06T09:46:47;66.90;;;2.90;;
4049;SDS011;2039;50.894;6.888;2022-07-06T09:49:16;67.30;;;2.73;;
4049;SDS011;2039;50.894;6.888;2022-07-06T09:51:44;68.37;;;3.77;;
4049;SDS011;2039;50.894;6.888;2022-07-06T09:54:11;65.70;;;2.83;;
4049;SDS011;2039;50.894;6.888;2022-07-06T09:56:37;66.07;;;2.20;;
4049;SDS011;2039;50.894;6.888;2022-07-06T10:01:37;66.20;;;2.60;;
4049;SDS011;2039;50.894;6.888;2022-07-06T10:04:05;65.90;;;2.37;;
4049;SDS011;2039;50.894;6.888;2022-07-06T10:06:31;67.40;;;2.77;;
4049;SDS011;2039;50.894;6.888;2022-07-06T10:08:57;65.57;;;3.00;;
4049;SDS011;2039;50.894;6.888;2022-07-06T10:11:24;65.70;;;2.87;;
4049;SDS011;2039;50.894;6.888;2022-07-06T10:13:51;65.97;;;2.90;;
4049;SDS011;2039;50.894;6.888;2022-07-06T10:16:21;66.83;;;2.90;;
4049;SDS011;2039;50.894;6.888;2022-07-06T10:18:48;65.80;;;3.13;;
4049;SDS011;2039;50.894;6.888;2022-07-06T10:21:16;66.60;;;3.80;;
4049;SDS011;2039;50.894;6.888;2022-07-06T10:23:43;66.00;;;4.10;;
4049;SDS011;2039;50.894;6.888;2022-07-06T10:26:09;67.77;;;3.60;;
4049;SDS011;2039;50.894;6.888;2022-07-06T10:28:36;65.20;;;3.00;;
4049;SDS011;2039;50.894;6.888;2022-07-06T10:31:03;71.03;;;3.40;;
4049;SDS011;2039;50.894;6.888;2022-07-06T10:33:30;66.50;;;3.67;;
4049;SDS011;2039;50.894;6.888;2022-07-06T10:35:57;66.40;;;2.80;;
4049;SDS011;2039;50.894;6.888;2022-07-06T10:38:33;66.50;;;3.10;;
4049;SDS011;2039;50.894;6.888;2022-07-06T10:41:04;65.90;;;2.80;;
4049;SDS011;2039;50.894;6.888;2022-07-06T10:43:35;65.67;;;2.87;;
4049;SDS011;2039;50.894;6.888;2022-07-06T10:46:16;67.00;;;4.20;;
4049;SDS011;2039;50.894;6.888;2022-07-06T10:48:44;70.77;;;3.10;;
4049;SDS011;2039;50.894;6.888;2022-07-06T10:51:11;66.67;;;3.40;;
4049;SDS011;2039;50.894;6.888;2022-07-06T10:53:49;67.60;;;3.57;;
4049;SDS011;2039;50.894;6.888;2022-07-06T10:56:21;66.77;;;6.10;;
4049;SDS011;2039;50.894;6.888;2022-07-06T10:59:01;67.90;;;7.63;;
4049;SDS011;2039;50.894;6.888;2022-07-06T11:01:32;68.67;;;7.63;;
4049;SDS011;2039;50.894;6.888;2022-07-06T11:06:26;66.60;;;5.20;;
4049;SDS011;2039;50.894;6.888;2022-07-06T11:09:05;70.37;;;10.13;;
4049;SDS011;2039;50.894;6.888;2022-07-06T11:11:57;69.97;;;7.33;;
4049;SDS011;2039;50.894;6.888;2022-07-06T11:17:12;66.43;;;6.00;;
4049;SDS011;2039;50.894;6.888;2022-07-06T11:19:58;67.90;;;4.93;;
4049;SDS011;2039;50.894;6.888;2022-07-06T11:22:52;70.67;;;6.33;;
4049;SDS011;2039;50.894;6.888;2022-07-06T11:25:19;67.13;;;3.27;;
4049;SDS011;2039;50.894;6.888;2022-07-06T11:27:48;67.77;;;3.00;;
4049;SDS011;2039;50.894;6.888;2022-07-06T11:30:20;65.90;;;3.63;;
4049;SDS011;2039;50.894;6.888;2022-07-06T11:32:48;65.40;;;2.60;;
4049;SDS011;2039;50.894;6.888;2022-07-06T11:35:20;65.50;;;2.10;;
4049;SDS011;2039;50.894;6.888;2022-07-06T11:37:47;66.30;;;2.10;;
4049;SDS011;2039;50.894;6.888;2022-07-06T11:40:13;70.30;;;2.07;;
4049;SDS011;2039;50.894;6.888;2022-07-06T11:42:52;65.47;;;2.23;;
4049;SDS011;2039;50.894;6.888;2022-07-06T11:45:25;66.80;;;2.33;;
4049;SDS011;2039;50.894;6.888;2022-07-06T11:48:07;65.40;;;2.07;;
4049;SDS011;2039;50.894;6.888;2022-07-06T11:50:40;67.03;;;2.00;;
4049;SDS011;2039;50.894;6.888;2022-07-06T11:53:07;67.70;;;2.30;;
4049;SDS011;2039;50.894;6.888;2022-07-06T11:55:35;65.13;;;2.00;;
4049;SDS011;2039;50.894;6.888;2022-07-06T11:58:13;66.67;;;2.30;;
4049;SDS011;2039;50.894;6.888;2022-07-06T12:03:49;66.00;;;2.13;;
4049;SDS011;2039;50.894;6.888;2022-07-06T12:07:06;65.10;;;1.97;;
4049;SDS011;2039;50.894;6.888;2022-07-06T12:10:05;64.77;;;1.90;;
4049;SDS011;2039;50.894;6.888;2022-07-06T12:14:02;65.50;;;2.20;;
4049;SDS011;2039;50.894;6.888;2022-07-06T12:16:09;68.67;;;2.20;;
4049;SDS011;2039;50.894;6.888;2022-07-06T12:18:36;66.00;;;1.90;;
4049;SDS011;2039;50.894;6.888;2022-07-06T12:21:03;65.17;;;2.03;;
4049;SDS011;2039;50.894;6.888;2022-07-06T12:23:37;65.53;;;2.13;;
4049;SDS011;2039;50.894;6.888;2022-07-06T12:26:08;65.70;;;2.30;;
4049;SDS011;2039;50.894;6.888;2022-07-06T12:28:35;67.80;;;2.33;;
4049;SDS011;2039;50.894;6.888;2022-07-06T12:31:01;65.50;;;2.40;;
4049;SDS011;2039;50.894;6.888;2022-07-06T12:33:27;67.90;;;2.67;;
4049;SDS011;2039;50.894;6.888;2022-07-06T12:35:53;70.73;;;3.10;;
4049;SDS011;2039;50.894;6.888;2022-07-06T12:38:24;65.43;;;2.27;;
4049;SDS011;2039;50.894;6.888;2022-07-06T12:40:51;65.07;;;2.10;;
4049;SDS011;2039;50.894;6.888;2022-07-06T12:43:36;65.57;;;2.03;;
4049;SDS011;2039;50.894;6.888;2022-07-06T12:48:54;65.47;;;2.07;;
4049;SDS011;2039;50.894;6.888;2022-07-06T12:51:22;66.40;;;1.77;;
4049;SDS011;2039;50.894;6.888;2022-07-06T12:53:47;66.37;;;2.13;;
4049;SDS011;2039;50.894;6.888;2022-07-06T12:56:14;66.63;;;1.70;;
4049;SDS011;2039;50.894;6.888;2022-07-06T12:59:00;65.47;;;1.90;;
4049;SDS011;2039;50.894;6.888;2022-07-06T13:01:35;64.80;;;1.77;;
4049;SDS011;2039;50.894;6.888;2022-07-06T13:04:01;65.67;;;2.10;;
4049;SDS011;2039;50.894;6.888;2022-07-06T13:06:31;69.40;;;2.80;;
4049;SDS011;2039;50.894;6.888;2022-07-06T13:08:58;66.10;;;2.30;;
4049;SDS011;2039;50.894;6.888;2022-07-06T13:11:24;65.57;;;2.20;;
4049;SDS011;2039;50.894;6.888;2022-07-06T13:13:49;65.30;;;2.00;;
4049;SDS011;2039;50.894;6.888;2022-07-06T13:16:18;65.27;;;1.80;;
4049;SDS011;2039;50.894;6.888;2022-07-06T13:18:44;65.37;;;2.00;;
4049;SDS011;2039;50.894;6.888;2022-07-06T13:21:12;65.27;;;2.30;;
4049;SDS011;2039;50.894;6.888;2022-07-06T13:23:39;66.43;;;2.80;;
4049;SDS011;2039;50.894;6.888;2022-07-06T13:26:04;65.50;;;2.60;;
4049;SDS011;2039;50.894;6.888;2022-07-06T13:28:30;66.67;;;3.10;;
4049;SDS011;2039;50.894;6.888;2022-07-06T13:30:56;65.57;;;2.50;;
4049;SDS011;2039;50.894;6.888;2022-07-06T13:33:27;65.90;;;2.70;;
4049;SDS011;2039;50.894;6.888;2022-07-06T13:35:53;67.33;;;2.40;;
4049;SDS011;2039;50.894;6.888;2022-07-06T13:38:19;70.70;;;2.90;;
4049;SDS011;2039;50.894;6.888;2022-07-06T13:40:44;65.90;;;2.53;;
4049;SDS011;2039;50.894;6.888;2022-07-06T13:43:10;67.30;;;2.30;;
4049;SDS011;2039;50.894;6.888;2022-07-06T13:45:36;68.40;;;2.17;;
4049;SDS011;2039;50.894;6.888;2022-07-06T13:48:02;66.97;;;2.50;;
4049;SDS011;2039;50.894;6.888;2022-07-06T13:50:28;70.67;;;2.53;;
4049;SDS011;2039;50.894;6.888;2022-07-06T13:52:57;67.57;;;2.70;;
4049;SDS011;2039;50.894;6.888;2022-07-06T13:55:24;67.17;;;2.90;;
4049;SDS011;2039;50.894;6.888;2022-07-06T13:57:49;66.87;;;2.27;;
4049;SDS011;2039;50.894;6.888;2022-07-06T14:00:15;66.20;;;2.13;;
4049;SDS011;2039;50.894;6.888;2022-07-06T14:02:43;65.60;;;2.20;;
4049;SDS011;2039;50.894;6.888;2022-07-06T14:05:10;66.10;;;2.30;;
4049;SDS011;2039;50.894;6.888;2022-07-06T14:07:36;65.57;;;2.80;;
4049;SDS011;2039;50.894;6.888;2022-07-06T14:10:02;65.70;;;2.20;;
4049;SDS011;2039;50.894;6.888;2022-07-06T14:12:34;65.73;;;2.60;;
4049;SDS011;2039;50.894;6.888;2022-07-06T14:15:03;65.00;;;2.30;;
4049;SDS011;2039;50.894;6.888;2022-07-06T14:17:29;68.40;;;2.37;;
4049;SDS011;2039;50.894;6.888;2022-07-06T14:19:55;65.47;;;1.80;;
4049;SDS011;2039;50.894;6.888;2022-07-06T14:22:21;64.87;;;1.60;;
4049;SDS011;2039;50.894;6.888;2022-07-06T14:24:46;65.30;;;1.87;;
4049;SDS011;2039;50.894;6.888;2022-07-06T14:27:12;66.60;;;1.70;;
4049;SDS011;2039;50.894;6.888;2022-07-06T14:29:38;67.80;;;2.40;;
4049;SDS011;2039;50.894;6.888;2022-07-06T14:32:04;66.87;;;1.87;;
4049;SDS011;2039;50.894;6.888;2022-07-06T14:34:30;68.30;;;2.20;;
4049;SDS011;2039;50.894;6.888;2022-07-06T14:36:55;66.97;;;1.90;;
4049;SDS011;2039;50.894;6.888;2022-07-06T14:39:21;65.17;;;2.00;;
4049;SDS011;2039;50.894;6.888;2022-07-06T14:41:47;65.17;;;1.70;;
4049;SDS011;2039;50.894;6.888;2022-07-06T14:44:12;65.70;;;1.83;;
4049;SDS011;2039;50.894;6.888;2022-07-06T14:46:38;65.20;;;1.77;;
4049;SDS011;2039;50.894;6.888;2022-07-06T14:49:04;66.50;;;1.70;;
4049;SDS011;2039;50.894;6.888;2022-07-06T14:51:30;67.07;;;1.90;;
4049;SDS011;2039;50.894;6.888;2022-07-06T14:53:55;65.90;;;1.73;;
4049;SDS011;2039;50.894;6.888;2022-07-06T14:56:22;65.67;;;2.20;;
4049;SDS011;2039;50.894;6.888;2022-07-06T14:58:47;66.40;;;2.07;;
4049;SDS011;2039;50.894;6.888;2022-07-06T15:01:13;66.30;;;1.70;;
4049;SDS011;2039;50.894;6.888;2022-07-06T15:03:39;65.70;;;2.40;;
4049;SDS011;2039;50.894;6.888;2022-07-06T15:06:05;68.50;;;1.90;;
4049;SDS011;2039;50.894;6.888;2022-07-06T15:08:31;66.40;;;1.90;;
4049;SDS011;2039;50.894;6.888;2022-07-06T15:10:57;66.00;;;2.20;;
4049;SDS011;2039;50.894;6.888;2022-07-06T15:13:22;66.33;;;2.10;;
4049;SDS011;2039;50.894;6.888;2022-07-06T15:15:48;65.40;;;1.93;;
4049;SDS011;2039;50.894;6.888;2022-07-06T15:18:14;65.80;;;1.67;;